createdAt,value
2019-05-01T00:01:14.208Z,8.93
2019-05-01T00:04:02.859Z,9.77
2019-05-01T00:06:41.221Z,8.70
2019-05-01T00:09:13.422Z,9.60
2019-05-01T00:11:44.411Z,7.97
2019-05-01T00:14:14.864Z,9.40
2019-05-01T00:16:45.564Z,8.50
2019-05-01T00:19:16.230Z,9.17
2019-05-01T00:21:46.683Z,9.17
2019-05-01T00:24:17.115Z,8.73
2019-05-01T00:26:47.598Z,8.83
2019-05-01T00:29:18.057Z,8.73
2019-05-01T00:31:48.479Z,8.83
2019-05-01T00:34:18.925Z,9.07
2019-05-01T00:36:49.412Z,9.07
2019-05-01T00:39:19.876Z,9.20
2019-05-01T00:41:50.418Z,8.87
2019-05-01T00:44:20.873Z,9.33
2019-05-01T00:46:51.302Z,8.57
2019-05-01T00:49:21.781Z,8.57
2019-05-01T00:51:52.196Z,8.87
2019-05-01T00:54:22.655Z,8.90
2019-05-01T00:56:58.141Z,9.87
2019-05-01T00:59:38.952Z,8.87
2019-05-01T01:02:13.647Z,9.10
2019-05-01T01:04:44.216Z,8.07
2019-05-01T01:07:14.692Z,8.83
2019-05-01T01:09:45.187Z,8.57
2019-05-01T01:12:15.922Z,8.27
2019-05-01T01:14:46.398Z,8.83
2019-05-01T01:17:17.218Z,9.03
2019-05-01T01:19:47.692Z,10.07
2019-05-01T01:22:18.261Z,8.53
2019-05-01T01:24:48.755Z,9.37
2019-05-01T01:27:19.251Z,9.13
2019-05-01T01:29:49.743Z,9.03
2019-05-01T01:32:20.180Z,10.33
2019-05-01T01:34:50.607Z,8.87
2019-05-01T01:37:21.103Z,8.67
2019-05-01T01:39:51.670Z,8.30
2019-05-01T01:42:22.421Z,10.33
2019-05-01T01:44:57.571Z,9.47
2019-05-01T01:47:28.249Z,8.33
2019-05-01T01:49:59.306Z,9.77
2019-05-01T01:52:29.918Z,10.10
2019-05-01T01:55:00.787Z,9.23
2019-05-01T01:57:31.502Z,10.33
2019-05-01T02:00:02.903Z,10.60
2019-05-01T02:02:36.677Z,10.17
2019-05-01T02:05:12.577Z,10.20
2019-05-01T02:07:43.490Z,10.87
2019-05-01T02:10:15.036Z,10.37
2019-05-01T02:12:45.565Z,11.00
2019-05-01T02:15:16.560Z,10.43
2019-05-01T02:17:47.080Z,10.67
2019-05-01T02:20:19.398Z,11.33
2019-05-01T02:22:49.939Z,11.40
2019-05-01T02:25:21.055Z,11.70
2019-05-01T02:27:54.158Z,12.53
2019-05-01T02:30:25.250Z,11.93
2019-05-01T02:32:57.411Z,11.23
2019-05-01T02:35:30.472Z,12.47
2019-05-01T02:38:03.923Z,12.80
2019-05-01T02:40:44.636Z,12.20
2019-05-01T02:43:18.564Z,12.13
2019-05-01T02:45:53.693Z,12.00
2019-05-01T02:48:26.085Z,11.30
2019-05-01T02:51:01.129Z,10.83
2019-05-01T02:53:36.627Z,10.23
2019-05-01T02:56:15.602Z,11.17
2019-05-01T02:58:49.606Z,11.10
2019-05-01T03:01:21.539Z,12.17
2019-05-01T03:03:53.177Z,10.67
2019-05-01T03:06:23.812Z,12.17
2019-05-01T03:08:56.002Z,12.07
2019-05-01T03:11:27.400Z,12.40
2019-05-01T03:14:03.027Z,12.93
2019-05-01T03:16:36.391Z,13.47
2019-05-01T03:19:10.584Z,12.43
2019-05-01T03:21:54.425Z,12.43
2019-05-01T03:24:31.451Z,13.60
2019-05-01T03:27:02.762Z,12.67
2019-05-01T03:29:33.534Z,13.40
2019-05-01T03:32:16.911Z,13.33
2019-05-01T03:34:36.574Z,13.17
2019-05-01T03:37:07.243Z,12.10
2019-05-01T03:39:37.953Z,12.97
2019-05-01T03:42:08.668Z,13.30
2019-05-01T03:44:39.340Z,12.43
2019-05-01T03:47:10.025Z,13.80
2019-05-01T03:49:40.869Z,13.23
2019-05-01T03:52:11.464Z,13.57
2019-05-01T03:54:42.327Z,13.13
2019-05-01T03:57:13.971Z,12.47
2019-05-01T03:59:45.208Z,13.13
2019-05-01T04:02:33.647Z,14.17
2019-05-01T04:05:00.603Z,13.70
2019-05-01T04:07:31.212Z,13.07
2019-05-01T04:10:01.741Z,13.63
2019-05-01T04:12:32.337Z,12.83
2019-05-01T04:15:02.936Z,13.77
2019-05-01T04:17:44.449Z,12.83
2019-05-01T04:20:15.235Z,13.73
2019-05-01T04:22:47.065Z,12.67
2019-05-01T04:25:17.978Z,14.17
2019-05-01T04:27:50.391Z,14.00
2019-05-01T04:30:28.707Z,13.77
2019-05-01T04:33:01.254Z,14.10
2019-05-01T04:35:49.521Z,13.83
2019-05-01T04:38:20.252Z,13.93
2019-05-01T04:40:50.891Z,15.17
2019-05-01T04:43:21.835Z,13.43
2019-05-01T04:45:53.071Z,14.93
2019-05-01T04:48:23.615Z,14.40
2019-05-01T04:50:54.345Z,14.27
2019-05-01T04:53:25.355Z,12.97
2019-05-01T04:55:56.157Z,14.30
2019-05-01T04:58:27.021Z,13.20
2019-05-01T05:00:57.954Z,13.70
2019-05-01T05:03:28.643Z,12.37
2019-05-01T05:06:00.183Z,12.83
2019-05-01T05:08:31.628Z,12.40
2019-05-01T05:11:04.023Z,12.83
2019-05-01T05:13:39.245Z,11.60
2019-05-01T05:16:11.955Z,12.23
2019-05-01T05:18:42.645Z,11.80
2019-05-01T05:21:14.002Z,11.97
2019-05-01T05:23:44.919Z,11.27
2019-05-01T05:26:16.503Z,11.20
2019-05-01T05:28:49.130Z,10.33
2019-05-01T05:31:20.765Z,11.07
2019-05-01T05:33:53.112Z,10.37
2019-05-01T05:36:27.751Z,10.87
2019-05-01T05:39:02.146Z,10.57
2019-05-01T05:41:33.018Z,9.73
2019-05-01T05:44:03.817Z,9.53
2019-05-01T05:46:34.551Z,9.90
2019-05-01T05:49:05.126Z,10.33
2019-05-01T05:51:42.607Z,9.27
2019-05-01T05:54:32.554Z,8.57
2019-05-01T05:57:07.465Z,9.33
2019-05-01T05:59:43.305Z,9.60
2019-05-01T06:02:25.389Z,10.63
2019-05-01T06:05:01.311Z,9.87
2019-05-01T06:07:42.923Z,10.50
2019-05-01T06:10:18.430Z,10.87
2019-05-01T06:12:56.729Z,10.40
2019-05-01T06:15:36.661Z,9.87
2019-05-01T06:18:09.589Z,10.97
2019-05-01T06:21:02.279Z,10.80
2019-05-01T06:23:40.904Z,10.53
2019-05-01T06:26:31.920Z,11.67
2019-05-01T06:29:02.468Z,10.38
2019-05-01T06:31:34.096Z,10.48
2019-05-01T06:34:05.049Z,11.30
2019-05-01T06:36:36.108Z,10.95
2019-05-01T06:39:12.021Z,11.12
2019-05-01T06:41:43.779Z,10.72
2019-05-01T06:44:20.089Z,11.55
2019-05-01T06:46:53.653Z,9.78
2019-05-01T06:49:45.167Z,10.05
2019-05-01T06:52:18.378Z,10.03
2019-05-01T06:54:52.089Z,9.23
2019-05-01T06:57:33.633Z,10.32
2019-05-01T07:00:09.451Z,9.73
2019-05-01T07:02:42.127Z,9.68
2019-05-01T07:05:14.879Z,8.35
2019-05-01T07:07:56.898Z,8.80
2019-05-01T07:10:42.468Z,9.13
2019-05-01T07:13:12.240Z,9.60
2019-05-01T07:15:43.722Z,9.23
2019-05-01T07:18:18.772Z,9.65
2019-05-01T07:20:53.264Z,8.75
2019-05-01T07:23:26.824Z,9.50
2019-05-01T07:26:02.372Z,8.90
2019-05-01T07:28:37.985Z,8.95
2019-05-01T07:31:11.321Z,9.35
2019-05-01T07:33:47.025Z,8.85
2019-05-01T07:36:22.982Z,8.63
2019-05-01T07:39:00.333Z,8.00
2019-05-01T07:41:40.783Z,8.53
2019-05-01T07:44:14.204Z,8.13
2019-05-01T07:46:54.225Z,7.67
2019-05-01T07:49:38.488Z,7.45
2019-05-01T07:52:12.504Z,7.37
2019-05-01T07:54:43.572Z,7.47
2019-05-01T07:57:16.584Z,7.85
2019-05-01T07:59:47.983Z,7.78
2019-05-01T08:02:19.107Z,7.45
2019-05-01T08:04:50.271Z,7.53
2019-05-01T08:07:21.274Z,7.62
2019-05-01T08:09:52.310Z,7.92
2019-05-01T08:12:24.120Z,6.78
2019-05-01T08:14:55.932Z,6.65
2019-05-01T08:17:28.615Z,7.80
2019-05-01T08:20:03.090Z,8.15
2019-05-01T08:22:37.306Z,7.35
2019-05-01T08:25:12.851Z,6.70
2019-05-01T08:27:50.949Z,6.75
2019-05-01T08:30:24.134Z,7.33
2019-05-01T08:32:56.927Z,7.75
2019-05-01T08:35:31.727Z,8.33
2019-05-01T08:38:02.510Z,7.00
2019-05-01T08:40:37.349Z,6.42
2019-05-01T08:43:09.529Z,7.60
2019-05-01T08:45:47.067Z,7.47
2019-05-01T08:48:30.856Z,7.90
2019-05-01T08:51:07.554Z,7.67
2019-05-01T08:53:38.662Z,7.47
2019-05-01T08:56:09.952Z,7.00
2019-05-01T09:01:16.283Z,6.85
2019-05-01T09:04:32.609Z,6.95
2019-05-01T09:10:23.292Z,6.72
2019-05-01T09:12:54.271Z,7.53
2019-05-01T09:15:25.351Z,7.33
2019-05-01T09:17:56.368Z,6.75
2019-05-01T09:20:27.729Z,6.70
2019-05-01T09:23:04.123Z,7.33
2019-05-01T09:25:37.119Z,7.33
2019-05-01T09:28:18.724Z,7.17
2019-05-01T09:31:01.360Z,7.40
2019-05-01T09:33:30.930Z,8.03
2019-05-01T09:35:59.613Z,8.13
2019-05-01T09:38:35.509Z,7.53
2019-05-01T09:41:08.426Z,7.55
2019-05-01T09:43:39.769Z,7.50
2019-05-01T09:46:10.875Z,9.23
2019-05-01T09:48:42.107Z,6.78
2019-05-01T09:54:21.560Z,8.13
2019-05-01T09:56:57.256Z,6.90
2019-05-01T10:06:32.343Z,5.83
2019-05-01T10:09:04.870Z,7.15
2019-05-01T10:11:40.733Z,5.92
2019-05-01T10:27:40.942Z,6.40
2019-05-01T10:30:14.912Z,8.83
2019-05-01T10:32:52.914Z,7.85
2019-05-01T10:35:42.814Z,6.35
2019-05-01T10:38:16.586Z,7.78
2019-05-01T10:41:09.130Z,6.42
2019-05-01T10:43:51.227Z,6.65
2019-05-01T10:56:27.361Z,7.40
2019-05-01T11:02:13.606Z,7.05
2019-05-01T11:05:55.795Z,6.35
2019-05-01T11:12:20.912Z,7.30
2019-05-01T11:22:12.143Z,9.33
2019-05-01T11:27:41.601Z,7.65
2019-05-01T11:34:29.777Z,7.35
2019-05-01T11:37:29.495Z,12.40
2019-05-01T11:40:02.927Z,9.65
2019-05-01T11:42:49.823Z,8.60
2019-05-01T11:45:25.741Z,13.72
2019-05-01T11:47:57.154Z,7.00
2019-05-01T11:50:29.868Z,7.92
2019-05-01T11:53:01.317Z,8.73
2019-05-01T11:55:32.825Z,8.08
2019-05-01T11:58:07.315Z,8.08
2019-05-01T12:00:57.922Z,8.18
2019-05-01T12:03:44.490Z,9.43
2019-05-01T12:19:12.158Z,7.35
2019-05-01T12:21:49.022Z,7.50
2019-05-01T12:24:20.248Z,7.10
2019-05-01T12:57:42.343Z,8.00
2019-05-01T13:04:07.236Z,7.03
2019-05-01T13:06:49.531Z,7.42
2019-05-01T13:09:46.421Z,7.17
2019-05-01T13:12:17.593Z,7.55
2019-05-01T13:21:11.055Z,6.58
2019-05-01T13:26:54.900Z,9.53
2019-05-01T13:36:18.616Z,7.92
2019-05-01T13:51:31.472Z,7.83
2019-05-01T13:57:37.561Z,9.73
2019-05-01T14:00:23.236Z,6.97
2019-05-01T14:06:26.447Z,7.75
2019-05-01T14:09:37.019Z,6.67
2019-05-01T14:13:04.689Z,6.67
2019-05-01T14:15:35.708Z,7.28
2019-05-01T14:22:28.670Z,7.28
2019-05-01T14:44:36.910Z,7.53
2019-05-01T14:47:35.263Z,6.90
2019-05-01T15:07:21.036Z,7.90
2019-05-01T15:09:55.025Z,6.75
2019-05-01T15:15:51.994Z,6.65
2019-05-01T15:25:28.699Z,7.67
2019-05-01T15:31:27.846Z,7.42
2019-05-01T15:58:07.433Z,8.85
2019-05-01T16:08:20.516Z,8.70
2019-05-01T16:18:10.926Z,7.67
2019-05-01T16:21:19.516Z,7.70
2019-05-01T16:28:03.418Z,6.53
2019-05-01T16:30:59.943Z,7.10
2019-05-01T16:33:30.672Z,6.67
2019-05-01T16:36:02.642Z,7.90
2019-05-01T16:38:52.122Z,7.62
2019-05-01T16:41:49.018Z,8.30
2019-05-01T16:44:30.184Z,7.80
2019-05-01T16:47:03.782Z,8.25
2019-05-01T16:49:36.724Z,7.92
2019-05-01T16:52:13.063Z,7.87
2019-05-01T16:54:44.895Z,8.23
2019-05-01T16:57:15.508Z,7.00
2019-05-01T16:59:50.107Z,7.72
2019-05-01T17:02:46.295Z,7.65
2019-05-01T17:05:27.624Z,9.00
2019-05-01T17:12:10.927Z,7.70
2019-05-01T17:20:44.850Z,6.45
2019-05-01T17:36:54.972Z,5.62
2019-05-01T17:39:37.499Z,7.22
2019-05-01T17:42:08.020Z,6.15
2019-05-01T17:44:44.162Z,6.50
2019-05-01T17:50:55.073Z,6.70
2019-05-01T18:01:20.017Z,5.93
2019-05-01T18:19:22.772Z,5.17
2019-05-01T18:25:51.749Z,5.00
2019-05-01T18:35:50.468Z,5.60
2019-05-01T18:38:50.179Z,9.43
2019-05-01T18:54:55.232Z,5.23
2019-05-01T19:03:42.311Z,4.63
2019-05-01T19:06:23.109Z,4.90
2019-05-01T19:09:14.638Z,5.20
2019-05-01T19:11:39.049Z,9.20
2019-05-01T19:14:10.637Z,5.90
2019-05-01T19:16:47.154Z,6.13
2019-05-01T19:19:33.757Z,8.13
2019-05-01T19:22:04.426Z,5.00
2019-05-01T19:24:38.125Z,5.70
2019-05-01T19:27:27.627Z,5.70
2019-05-01T19:33:31.315Z,5.93
2019-05-01T19:38:35.078Z,5.70
2019-05-01T19:45:31.102Z,5.70
2019-05-01T19:51:19.148Z,9.03
2019-05-01T19:53:53.398Z,7.00
2019-05-01T19:56:23.945Z,5.20
2019-05-01T19:59:03.614Z,5.40
2019-05-01T20:01:38.407Z,5.87
2019-05-01T20:04:08.334Z,5.77
2019-05-01T20:06:51.874Z,7.40
2019-05-01T20:15:57.367Z,5.87
2019-05-01T20:18:29.109Z,6.10
2019-05-01T20:21:08.850Z,5.20
2019-05-01T20:23:37.340Z,5.77
2019-05-01T20:26:09.247Z,5.87
2019-05-01T20:35:40.485Z,5.63
2019-05-01T20:38:11.088Z,4.93
2019-05-01T20:40:41.803Z,5.80
2019-05-01T20:43:12.253Z,5.30
2019-05-01T20:45:44.992Z,5.57
2019-05-01T20:50:48.732Z,6.60
2019-05-01T21:19:23.215Z,5.33
2019-05-01T21:22:04.116Z,4.83
2019-05-01T21:24:54.012Z,5.40
2019-05-01T21:27:36.819Z,5.83
2019-05-01T21:38:10.614Z,5.27
2019-05-01T21:41:02.531Z,5.40
2019-05-01T21:43:42.920Z,5.33
2019-05-01T21:53:15.977Z,4.67
2019-05-01T22:02:55.777Z,6.53
2019-05-01T22:09:15.329Z,5.07
2019-05-01T22:11:47.801Z,5.93
2019-05-01T22:14:19.993Z,6.07
2019-05-01T22:16:53.182Z,5.50
2019-05-01T22:19:24.757Z,5.77
2019-05-01T22:21:57.165Z,5.53
2019-05-01T22:24:35.224Z,5.70
2019-05-01T22:27:13.554Z,5.90
2019-05-01T22:29:45.677Z,5.93
2019-05-01T22:32:17.767Z,5.60
2019-05-01T22:34:50.072Z,5.43
2019-05-01T22:37:20.579Z,6.50
2019-05-01T22:39:55.126Z,5.67
2019-05-01T22:42:25.572Z,6.00
2019-05-01T22:44:56.104Z,6.13
2019-05-01T22:47:26.871Z,6.07
2019-05-01T22:49:57.338Z,6.40
2019-05-01T22:52:27.927Z,5.97
2019-05-01T22:54:58.694Z,6.60
2019-05-01T22:57:29.238Z,6.73
2019-05-01T22:59:59.758Z,5.90
2019-05-01T23:02:33.667Z,5.23
2019-05-01T23:05:07.211Z,5.33
2019-05-01T23:07:37.767Z,6.20
2019-05-01T23:10:09.886Z,6.00
2019-05-01T23:12:40.437Z,6.10
2019-05-01T23:15:14.352Z,5.53
2019-05-01T23:17:46.285Z,6.37
2019-05-01T23:20:17.306Z,5.70
2019-05-01T23:22:48.021Z,6.17
2019-05-01T23:25:18.573Z,6.33
2019-05-01T23:27:49.498Z,6.37
2019-05-01T23:30:21.813Z,6.17
2019-05-01T23:32:52.376Z,5.80
2019-05-01T23:35:22.893Z,6.50
2019-05-01T23:37:53.573Z,5.53
2019-05-01T23:40:24.180Z,5.90
2019-05-01T23:42:54.658Z,5.80
2019-05-01T23:45:25.122Z,6.40
2019-05-01T23:47:55.659Z,6.20
2019-05-01T23:50:26.553Z,5.67
2019-05-01T23:56:23.075Z,5.67
2019-05-01T23:58:53.519Z,5.80
